Terminal Aerodrome Forecast
Issued by NWS

Home | Current Version | Previous Version | Text Only | Print | Product List | Glossary On
Versions: 1 2 3 4 5 6 7 8 9 10 11 12
000
FTUS46 KHNX 312300
TAFMCE
TAF
KMCE 312320Z 0100/0124 32010KT P6SM SKC
     FM010600 VRB04KT P6SM SKC
     FM012000 32008KT P6SM SKC=

USA.gov is the U.S. government's official web portal to all federal, state and local government web resources and services.